1V6

Fremont County Airport

Canon City, Colorado, USA
METAR K1V6 232230Z AUTO 11011G23KT 10SM CLR 25/02 A2999 RMK AO2
Observed Flight Rules
Apr-23 @ 22:30 UTC (27 minutes ago) Visual Flight Rules
Wind Visibility Clouds
110° at 11 knots
 Gusting to 23 knots
10 miles
  • Clear skies
Temperatures Readings
Current 25°C / 77°F
Dewpoint 2°C / 36°F
Humidity 22%
Altimeter 29.99" Hg
Pressure 1016 hPa
Elevation 1658
METAR K1V6 232230Z AUTO 11011G23KT 10SM CLR 25/02 A2999 RMK AO2
Observed Flight Rules
Apr-23 @ 22:30 UTC
(27 minutes ago)
VFR
Wind Visibility
110° at 11 knots
 Gusting to 23 knots
10 miles
Clouds
  • Clear skies
Temperature Dewpoint
25°C / 77°F 2°C / 36°F
Humidity Altimeter Pressure
22% 29.99" Hg 1016 hPa